createdAt,value
2017-04-28T20:45:06.465Z,1013.697
2017-04-28T20:50:47.814Z,1013.880
2017-04-28T20:53:41.171Z,1013.959
2017-04-28T20:56:33.679Z,1014.062
2017-04-28T20:59:26.300Z,1014.046
2017-04-28T21:02:19.410Z,1014.098
2017-04-28T21:05:12.876Z,1014.107
2017-04-28T21:08:06.430Z,1014.140
2017-04-28T21:10:59.638Z,1014.146
2017-04-28T21:13:52.716Z,1014.136
2017-04-28T21:16:46.063Z,1014.178
2017-04-28T21:19:39.439Z,1014.178
2017-04-28T21:22:32.892Z,1014.161
2017-04-28T21:25:26.364Z,1014.145
2017-04-28T21:28:19.885Z,1014.139
2017-04-28T21:31:13.366Z,1014.143
2017-04-28T21:34:06.868Z,1014.163
2017-04-28T21:37:00.309Z,1014.160
2017-04-28T21:39:54.233Z,1014.180
2017-04-28T21:42:47.674Z,1014.172
2017-04-28T21:45:40.993Z,1014.168
2017-04-28T21:48:34.410Z,1014.165
2017-04-28T21:51:27.879Z,1014.182
2017-04-28T21:54:21.503Z,1014.206
2017-04-28T21:57:14.996Z,1014.187
2017-04-28T22:00:09.180Z,1014.181
2017-04-28T22:03:03.261Z,1014.182
2017-04-28T22:08:51.679Z,1014.174
2017-04-28T22:11:45.670Z,1014.152
2017-04-28T22:14:39.712Z,1014.132
2017-04-28T22:17:33.639Z,1014.093
2017-04-28T22:20:27.724Z,1014.036
2017-04-28T22:23:21.663Z,1014.032
2017-04-28T22:26:15.672Z,1014.046
2017-04-28T22:29:09.583Z,1014.031
2017-04-28T22:32:03.523Z,1014.005
2017-04-28T22:34:57.469Z,1014.034
2017-04-28T22:37:51.422Z,1014.019
2017-04-28T22:40:45.404Z,1014.026
2017-04-28T22:43:39.407Z,1013.998
2017-04-28T22:46:33.297Z,1013.974
2017-04-28T22:49:27.173Z,1013.969
2017-04-28T22:52:21.114Z,1013.958
2017-04-28T22:55:14.987Z,1013.953
2017-04-28T22:58:08.861Z,1013.988
2017-04-28T23:01:02.798Z,1013.972
2017-04-28T23:03:56.745Z,1013.940
2017-04-28T23:06:50.571Z,1013.982
2017-04-28T23:09:44.462Z,1013.967
2017-04-28T23:12:38.223Z,1013.964
2017-04-28T23:15:32.069Z,1013.974
2017-04-28T23:18:25.945Z,1013.952
2017-04-28T23:21:19.629Z,1013.928
2017-04-28T23:24:13.335Z,1013.910
2017-04-28T23:27:07.154Z,1013.878
2017-04-28T23:30:00.973Z,1013.871
2017-04-28T23:32:54.806Z,1013.931
2017-04-28T23:35:48.424Z,1013.937
2017-04-28T23:38:42.213Z,1013.936
2017-04-28T23:41:36.006Z,1013.950
2017-04-28T23:44:29.806Z,1013.940
2017-04-28T23:47:23.497Z,1013.955
2017-04-28T23:50:17.209Z,1013.965
2017-04-28T23:53:10.906Z,1013.960
2017-04-28T23:56:04.563Z,1013.933
2017-04-28T23:58:58.147Z,1013.925
